Time;durP1;ratioP1;P1;durP2;ratioP2;P2;SDS_P1;SDS_P2;PMS_P1;PMS_P2;Temp;Humidity;BMP_temperature;BMP_pressure;BME280_temperature;BME280_humidity;BME280_pressure;Samples;Min_cycle;Max_cycle;Signal;HPM_P1;HPM_P2
2023/07/10 00:01:24;;;;;;;4.20;3.80;;;16.20;94.60;;;;;;5112351;28;20093;-80
2023/07/10 00:03:50;;;;;;;3.70;3.40;;;16.10;95.60;;;;;;5113756;28;20023;-80
2023/07/10 00:06:16;;;;;;;3.65;3.35;;;16.10;93.10;;;;;;5112604;28;20030;-80
2023/07/10 00:08:42;;;;;;;3.25;2.88;;;16.10;91.20;;;;;;5112390;28;20111;-77
2023/07/10 00:11:17;;;;;;;4.10;3.20;;;16.10;90.70;;;;;;5113623;28;20028;-77
2023/07/10 00:13:44;;;;;;;4.00;3.70;;;16.00;90.20;;;;;;5112543;28;20055;-80
2023/07/10 00:16:16;;;;;;;4.03;3.30;;;16.00;92.00;;;;;;5113705;28;20069;-77
2023/07/10 00:18:42;;;;;;;4.55;3.05;;;15.90;93.50;;;;;;5112469;28;20028;-80
2023/07/10 00:21:08;;;;;;;3.75;3.00;;;15.90;94.00;;;;;;5113683;28;20100;-77
2023/07/10 00:23:34;;;;;;;3.92;3.33;;;15.90;94.90;;;;;;5113485;28;20035;-77
2023/07/10 00:25:59;;;;;;;6.93;3.30;;;15.80;95.40;;;;;;5112219;28;20486;-79
2023/07/10 00:28:25;;;;;;;5.68;3.72;;;15.80;97.70;;;;;;5112234;28;20016;-77
2023/07/10 00:30:51;;;;;;;4.43;3.50;;;15.80;96.50;;;;;;5113524;28;20382;-78
2023/07/10 00:33:19;;;;;;;3.85;3.55;;;15.70;95.90;;;;;;5113577;28;20019;-78
2023/07/10 00:35:45;;;;;;;3.75;3.45;;;15.70;95.10;;;;;;5113473;28;20016;-77
2023/07/10 00:38:25;;;;;;;4.68;3.28;;;15.70;95.60;;;;;;5073523;28;20410;-79
2023/07/10 00:40:51;;;;;;;4.20;3.80;;;15.70;95.90;;;;;;5028874;28;20090;-77
2023/07/10 00:43:22;;;;;;;4.20;3.33;;;15.60;97.50;;;;;;5028405;28;20038;-77
2023/07/10 00:45:49;;;;;;;3.92;3.50;;;15.50;98.20;;;;;;5033078;28;20028;-77
2023/07/10 00:48:35;;;;;;;5.20;3.42;;;15.50;99.60;;;;;;5032114;28;20025;-78
2023/07/10 00:51:11;;;;;;;3.75;3.45;;;15.50;99.90;;;;;;5033461;28;20385;-78
2023/07/10 00:53:41;;;;;;;3.53;3.22;;;15.40;99.90;;;;;;5033288;28;20025;-77
2023/07/10 00:56:13;;;;;;;3.30;3.10;;;15.40;99.90;;;;;;5032143;28;20501;-77
2023/07/10 00:58:42;;;;;;;5.47;3.20;;;15.30;98.30;;;;;;5032362;28;20026;-76
2023/07/10 01:01:13;;;;;;;3.65;3.13;;;15.20;98.80;;;;;;5033206;28;20446;-78
2023/07/10 01:03:40;;;;;;;3.88;3.05;;;15.20;99.50;;;;;;5033094;28;20041;-76
2023/07/10 01:06:26;;;;;;;3.67;3.38;;;15.20;99.90;;;;;;5031331;28;20565;-78
2023/07/10 01:09:01;;;;;;;4.50;2.90;;;15.10;99.90;;;;;;5031785;28;20450;-77
2023/07/10 01:11:26;;;;;;;3.83;3.38;;;15.10;99.90;;;;;;5032696;28;20026;-77
2023/07/10 01:13:54;;;;;;;4.50;4.10;;;15.00;99.90;;;;;;5033006;28;20405;-77
2023/07/10 01:16:22;;;;;;;3.38;3.03;;;14.90;99.90;;;;;;5032974;28;20351;-80
2023/07/10 01:18:49;;;;;;;4.95;3.40;;;14.90;99.90;;;;;;5031692;28;20047;-80
2023/07/10 01:21:30;;;;;;;3.47;2.80;;;14.80;99.90;;;;;;5032934;28;20373;-77
2023/07/10 01:23:57;;;;;;;3.17;2.90;;;14.80;99.90;;;;;;5032878;28;20029;-78
2023/07/10 01:26:23;;;;;;;4.90;3.50;;;14.70;99.90;;;;;;5031591;28;20025;-80
2023/07/10 01:28:49;;;;;;;3.25;2.88;;;14.60;99.90;;;;;;5032717;28;20116;-77
2023/07/10 01:31:17;;;;;;;3.08;2.83;;;14.50;99.90;;;;;;5032955;28;20049;-77
2023/07/10 01:33:47;;;;;;;4.32;3.13;;;14.60;99.90;;;;;;5032556;28;20049;-77
2023/07/10 01:36:17;;;;;;;3.90;2.78;;;14.60;99.90;;;;;;5032688;28;20065;-78
2023/07/10 01:39:07;;;;;;;3.03;2.83;;;14.60;99.90;;;;;;5031305;28;20090;-80
2023/07/10 01:41:37;;;;;;;3.38;2.80;;;14.60;99.90;;;;;;5039650;28;20383;-77
2023/07/10 01:44:22;;;;;;;3.90;3.33;;;14.60;99.90;;;;;;5032573;28;20420;-76
2023/07/10 01:46:49;;;;;;;4.20;3.35;;;14.60;99.90;;;;;;5031104;28;20398;-81
2023/07/10 01:49:16;;;;;;;4.28;3.20;;;14.60;99.90;;;;;;5032435;28;20057;-76
2023/07/10 01:51:41;;;;;;;2.88;2.63;;;14.60;99.90;;;;;;5031201;28;20051;-77
2023/07/10 01:54:14;;;;;;;3.90;3.10;;;14.60;99.90;;;;;;5031208;28;20013;-77
2023/07/10 01:56:41;;;;;;;4.07;3.00;;;14.50;99.90;;;;;;5030793;28;20022;-77
2023/07/10 01:59:07;;;;;;;3.10;2.90;;;14.50;99.90;;;;;;5032393;28;20029;-77
2023/07/10 02:01:32;;;;;;;3.10;2.85;;;14.50;99.90;;;;;;5030931;28;20017;-79
2023/07/10 02:03:58;;;;;;;4.43;2.80;;;14.40;99.90;;;;;;5030918;28;20030;-79
2023/07/10 02:06:25;;;;;;;3.08;2.78;;;14.40;99.90;;;;;;5032292;28;20075;-79
2023/07/10 02:08:50;;;;;;;4.47;3.15;;;14.40;99.90;;;;;;5030880;28;20419;-77
2023/07/10 02:11:16;;;;;;;2.63;2.42;;;14.40;99.90;;;;;;5031880;28;20037;-79
2023/07/10 02:13:41;;;;;;;3.78;2.35;;;14.40;99.90;;;;;;5030840;28;20456;-79
2023/07/10 02:16:10;;;;;;;6.72;2.83;;;14.30;99.90;;;;;;5030791;28;20029;-79
2023/07/10 02:18:36;;;;;;;3.25;2.85;;;14.30;99.90;;;;;;5030632;28;20022;-77
2023/07/10 02:21:01;;;;;;;3.22;2.92;;;14.30;99.90;;;;;;5030791;28;20030;-79
2023/07/10 02:23:28;;;;;;;3.95;3.00;;;14.30;99.90;;;;;;5030591;28;20144;-79
2023/07/10 02:25:54;;;;;;;5.10;2.95;;;14.20;99.90;;;;;;5030638;28;20026;-78
2023/07/10 02:28:19;;;;;;;4.03;2.85;;;14.20;99.90;;;;;;5031854;28;20022;-77
2023/07/10 02:30:45;;;;;;;3.72;3.30;;;14.30;99.90;;;;;;5030557;28;20032;-77
2023/07/10 02:33:11;;;;;;;3.60;3.28;;;14.30;99.90;;;;;;5030544;28;20108;-79
2023/07/10 02:35:36;;;;;;;4.22;2.75;;;14.30;99.90;;;;;;5030618;28;20085;-78
2023/07/10 02:38:02;;;;;;;2.92;2.72;;;14.30;99.90;;;;;;5030471;28;20022;-79
2023/07/10 02:40:28;;;;;;;3.85;2.85;;;14.30;99.90;;;;;;5030401;28;20037;-79
2023/07/10 02:42:53;;;;;;;3.63;3.13;;;14.20;99.90;;;;;;5031635;28;20033;-78
2023/07/10 02:45:19;;;;;;;3.80;3.50;;;14.10;99.90;;;;;;5031607;28;20021;-76
2023/07/10 02:47:45;;;;;;;3.50;3.20;;;14.00;99.90;;;;;;5030275;28;20018;-76
2023/07/10 02:50:11;;;;;;;3.47;3.17;;;14.00;99.90;;;;;;5030311;28;20021;-79
2023/07/10 02:52:37;;;;;;;3.97;3.15;;;14.00;99.90;;;;;;5030277;28;20022;-76
2023/07/10 02:55:02;;;;;;;3.80;3.50;;;13.90;99.90;;;;;;5031571;28;20048;-80
2023/07/10 02:57:28;;;;;;;6.88;3.88;;;13.80;99.90;;;;;;5031048;28;20116;-79
2023/07/10 02:59:54;;;;;;;3.50;2.90;;;13.80;99.90;;;;;;5030186;28;20021;-79
2023/07/10 03:02:19;;;;;;;3.97;3.58;;;13.80;99.90;;;;;;5029901;28;20038;-80
2023/07/10 03:04:45;;;;;;;3.97;3.60;;;13.80;99.90;;;;;;5031331;28;20067;-78
2023/07/10 03:07:11;;;;;;;3.38;3.08;;;13.80;99.90;;;;;;5029138;28;20022;-77
2023/07/10 03:09:36;;;;;;;3.55;2.95;;;13.80;99.90;;;;;;5031419;28;20078;-79
2023/07/10 03:12:02;;;;;;;6.00;2.85;;;13.90;99.90;;;;;;5029763;28;20443;-77
2023/07/10 03:14:28;;;;;;;5.63;3.40;;;13.90;99.90;;;;;;5029936;28;20074;-80
2023/07/10 03:16:53;;;;;;;5.65;3.45;;;14.00;99.90;;;;;;5029782;28;20062;-80
2023/07/10 03:19:19;;;;;;;5.72;3.10;;;14.00;99.90;;;;;;5031046;28;20018;-80
2023/07/10 03:21:45;;;;;;;7.40;3.50;;;14.10;99.90;;;;;;5029961;28;20021;-77
2023/07/10 03:24:11;;;;;;;5.13;3.15;;;14.20;99.90;;;;;;5029773;28;20022;-81
2023/07/10 03:26:36;;;;;;;4.97;2.65;;;14.20;99.90;;;;;;5031107;28;20360;-77
2023/07/10 03:29:11;;;;;;;2.63;2.45;;;14.30;99.90;;;;;;5031191;28;20032;-78
2023/07/10 03:31:37;;;;;;;5.68;5.10;;;14.50;99.90;;;;;;5029608;28;20398;-77
2023/07/10 03:34:02;;;;;;;6.65;4.63;;;14.60;99.90;;;;;;5029645;28;20047;-77
2023/07/10 03:36:28;;;;;;;4.10;3.70;;;14.80;99.90;;;;;;5030886;28;20049;-77
2023/07/10 03:38:54;;;;;;;3.83;2.53;;;15.00;99.90;;;;;;5030853;28;20025;-81
2023/07/10 03:41:20;;;;;;;3.90;3.08;;;15.00;99.90;;;;;;5030698;28;20018;-77
2023/07/10 03:43:48;;;;;;;4.60;2.78;;;15.20;99.90;;;;;;5030784;28;20042;-82
2023/07/10 03:46:15;;;;;;;3.47;2.40;;;15.40;99.90;;;;;;5029534;28;20029;-77
2023/07/10 03:48:40;;;;;;;3.00;2.55;;;15.60;99.90;;;;;;5031359;28;20530;-77
2023/07/10 03:51:06;;;;;;;3.70;3.08;;;15.90;99.90;;;;;;5031609;28;20029;-82
2023/07/10 03:53:32;;;;;;;4.10;2.60;;;16.20;97.80;;;;;;5029868;28;20021;-82
2023/07/10 03:55:57;;;;;;;2.55;2.25;;;16.50;94.70;;;;;;5030007;28;20534;-77
2023/07/10 03:58:29;;;;;;;4.60;2.33;;;16.70;94.20;;;;;;5029275;28;20070;-82
2023/07/10 04:00:58;;;;;;;4.80;2.83;;;16.90;93.50;;;;;;5029343;28;20080;-82
2023/07/10 04:03:25;;;;;;;4.10;2.80;;;17.00;91.00;;;;;;5028931;28;20030;-77
2023/07/10 04:05:57;;;;;;;6.15;2.90;;;17.10;89.70;;;;;;5030547;28;20083;-81
2023/07/10 04:08:27;;;;;;;8.52;2.90;;;17.10;90.70;;;;;;5030675;28;20022;-82
2023/07/10 04:10:55;;;;;;;4.32;2.47;;;17.30;90.80;;;;;;5029316;28;20018;-82
2023/07/10 04:13:21;;;;;;;4.78;2.72;;;17.30;91.30;;;;;;5029216;28;20057;-78
2023/07/10 04:15:56;;;;;;;3.80;3.05;;;17.40;89.60;;;;;;5029107;28;20051;-82
2023/07/10 04:18:22;;;;;;;3.28;2.83;;;17.40;90.20;;;;;;5030207;28;20474;-77
2023/07/10 04:20:48;;;;;;;3.40;2.88;;;17.30;91.80;;;;;;5033977;28;20024;-82
2023/07/10 04:23:14;;;;;;;2.80;2.60;;;17.30;94.50;;;;;;5032568;28;20040;-82
2023/07/10 04:25:40;;;;;;;3.35;3.05;;;17.20;95.90;;;;;;5033888;28;20025;-77
2023/07/10 04:28:05;;;;;;;4.45;3.10;;;17.20;95.90;;;;;;5034024;28;20371;-77
2023/07/10 04:30:34;;;;;;;3.05;2.70;;;17.30;97.30;;;;;;5033949;28;20026;-81
2023/07/10 04:33:00;;;;;;;3.78;2.65;;;17.30;98.10;;;;;;5034124;28;20060;-77
2023/07/10 04:35:25;;;;;;;5.50;3.17;;;17.30;98.00;;;;;;5034009;28;20458;-82
2023/07/10 04:37:51;;;;;;;5.25;3.30;;;17.40;99.70;;;;;;5032394;28;20094;-81
2023/07/10 04:40:16;;;;;;;3.55;2.75;;;17.50;99.90;;;;;;5032374;28;20061;-77
2023/07/10 04:42:42;;;;;;;3.42;2.60;;;17.50;99.90;;;;;;5032248;28;20041;-81
2023/07/10 04:45:08;;;;;;;6.65;3.83;;;17.70;99.90;;;;;;5033139;28;20049;-77
2023/07/10 04:47:34;;;;;;;8.93;5.05;;;17.70;99.90;;;;;;5033611;28;20423;-78
2023/07/10 04:49:59;;;;;;;7.55;4.55;;;17.80;99.90;;;;;;5032161;28;20064;-78
2023/07/10 04:52:25;;;;;;;6.70;3.53;;;17.90;99.90;;;;;;5033296;28;20025;-77
2023/07/10 04:54:51;;;;;;;5.30;3.80;;;18.00;99.90;;;;;;5033461;28;20098;-78
2023/07/10 04:57:17;;;;;;;5.63;3.30;;;18.10;99.90;;;;;;5033062;28;20014;-77
2023/07/10 04:59:43;;;;;;;5.65;2.90;;;18.20;99.90;;;;;;5032109;28;20026;-77
2023/07/10 05:02:09;;;;;;;5.13;2.95;;;18.40;99.90;;;;;;5020422;28;20163;-78
2023/07/10 05:04:34;;;;;;;4.07;3.22;;;18.70;99.90;;;;;;5012436;28;20104;-82
2023/07/10 05:07:02;;;;;;;3.13;2.63;;;18.90;99.90;;;;;;5012896;28;20018;-82
2023/07/10 05:09:29;;;;;;;3.95;2.72;;;19.20;99.90;;;;;;5012050;28;20026;-78
2023/07/10 05:11:55;;;;;;;4.13;2.25;;;19.50;99.90;;;;;;5012972;28;20418;-78
2023/07/10 05:14:21;;;;;;;4.25;2.50;;;19.70;99.30;;;;;;5012043;28;20030;-83
2023/07/10 05:16:46;;;;;;;4.75;3.13;;;19.90;99.90;;;;;;5011949;28;20424;-78
2023/07/10 05:19:12;;;;;;;3.97;2.95;;;20.10;98.50;;;;;;5012939;28;20029;-77
2023/07/10 05:21:37;;;;;;;10.38;2.90;;;20.30;95.90;;;;;;5013070;28;20033;-78
2023/07/10 05:24:03;;;;;;;6.07;2.65;;;20.40;97.90;;;;;;5018673;28;20030;-77
2023/07/10 05:26:29;;;;;;;4.47;3.13;;;20.50;92.00;;;;;;5032854;28;20029;-77
2023/07/10 05:28:54;;;;;;;3.70;3.05;;;20.70;94.10;;;;;;5032889;28;20531;-81
2023/07/10 05:31:20;;;;;;;4.65;2.50;;;20.80;98.50;;;;;;5032013;28;20030;-78
2023/07/10 05:33:47;;;;;;;3.05;2.80;;;20.90;93.90;;;;;;5031864;28;20025;-78
2023/07/10 05:36:13;;;;;;;7.38;2.92;;;21.00;91.30;;;;;;5032623;28;20433;-80
2023/07/10 05:38:40;;;;;;;3.58;2.05;;;21.20;89.70;;;;;;5031565;28;20068;-77
2023/07/10 05:41:06;;;;;;;3.35;2.17;;;21.30;89.50;;;;;;5031672;28;20021;-77
2023/07/10 05:43:33;;;;;;;2.85;2.65;;;21.50;86.60;;;;;;5032522;28;20105;-78
2023/07/10 05:45:59;;;;;;;2.00;1.90;;;21.60;82.50;;;;;;5031513;28;20022;-77
2023/07/10 05:48:25;;;;;;;3.65;2.15;;;21.80;74.50;;;;;;5031451;28;20033;-78
2023/07/10 05:50:51;;;;;;;2.63;2.22;;;21.90;66.90;;;;;;5031740;28;20040;-78
2023/07/10 05:53:17;;;;;;;3.95;1.90;;;22.20;66.10;;;;;;5031567;28;20477;-78
2023/07/10 05:55:44;;;;;;;1.92;1.80;;;22.40;65.00;;;;;;5031649;28;20460;-79
2023/07/10 05:58:10;;;;;;;1.73;1.63;;;22.60;59.20;;;;;;5030269;28;20029;-79
2023/07/10 06:00:36;;;;;;;2.58;1.88;;;22.70;57.50;;;;;;5030825;28;20100;-79
2023/07/10 06:03:01;;;;;;;2.53;1.60;;;22.80;56.30;;;;;;5030536;28;20463;-82
2023/07/10 06:05:27;;;;;;;2.55;1.90;;;23.00;57.20;;;;;;5030404;28;20025;-82
2023/07/10 06:07:52;;;;;;;2.47;2.10;;;23.00;55.70;;;;;;5027721;28;20483;-82
2023/07/10 06:10:18;;;;;;;2.75;1.70;;;23.20;57.40;;;;;;5026315;28;20025;-79
2023/07/10 06:12:43;;;;;;;2.58;2.25;;;23.40;54.70;;;;;;5021158;28;20041;-82
2023/07/10 06:15:09;;;;;;;2.05;1.90;;;23.50;54.80;;;;;;5012041;28;20482;-79
2023/07/10 06:17:35;;;;;;;3.47;1.80;;;23.60;54.00;;;;;;5008785;28;20018;-79
2023/07/10 06:20:02;;;;;;;2.95;1.63;;;23.80;54.50;;;;;;5010020;28;20033;-79
2023/07/10 06:22:28;;;;;;;7.93;2.67;;;24.00;53.00;;;;;;5019665;28;20030;-79
2023/07/10 06:24:53;;;;;;;2.25;1.75;;;24.10;52.40;;;;;;5015747;28;20049;-79
2023/07/10 06:27:19;;;;;;;2.58;1.77;;;24.30;52.60;;;;;;5008558;28;20500;-79
2023/07/10 06:29:45;;;;;;;4.32;1.80;;;24.50;52.50;;;;;;5008788;28;20056;-79
2023/07/10 06:32:11;;;;;;;1.63;1.52;;;24.80;50.50;;;;;;5010031;28;20037;-79
2023/07/10 06:34:36;;;;;;;1.77;1.67;;;24.90;49.30;;;;;;5022295;28;20026;-79
2023/07/10 06:37:02;;;;;;;1.40;1.30;;;25.00;49.80;;;;;;5029686;28;20034;-79
2023/07/10 06:39:27;;;;;;;2.38;1.33;;;25.00;48.40;;;;;;5028863;28;20029;-79
2023/07/10 06:41:54;;;;;;;1.35;1.25;;;25.20;48.10;;;;;;5030049;28;20030;-79
2023/07/10 06:44:19;;;;;;;1.30;1.20;;;25.30;47.60;;;;;;5031262;28;20021;-79
2023/07/10 06:46:45;;;;;;;2.20;1.52;;;25.30;46.80;;;;;;5029338;28;20032;-83
2023/07/10 06:49:10;;;;;;;3.60;1.50;;;25.40;47.00;;;;;;5027957;28;20027;-82
2023/07/10 06:51:37;;;;;;;5.20;3.22;;;25.50;47.70;;;;;;5012126;28;20029;-82
2023/07/10 06:54:03;;;;;;;7.20;2.03;;;25.70;48.10;;;;;;5010227;28;20046;-82
2023/07/10 06:56:29;;;;;;;3.15;1.83;;;25.80;47.30;;;;;;5010218;28;20586;-82
2023/07/10 06:58:55;;;;;;;3.13;2.00;;;25.90;46.90;;;;;;5011455;28;20044;-82
2023/07/10 07:01:20;;;;;;;2.00;1.90;;;25.90;45.20;;;;;;5010096;28;20029;-81
2023/07/10 07:03:46;;;;;;;2.30;1.77;;;26.10;47.90;;;;;;5011138;28;20083;-82
2023/07/10 07:06:11;;;;;;;1.40;1.40;;;26.20;47.40;;;;;;5022836;28;20032;-81
2023/07/10 07:08:37;;;;;;;2.38;1.70;;;26.30;46.40;;;;;;5028699;28;20032;-82
2023/07/10 07:11:03;;;;;;;2.45;1.80;;;26.30;46.20;;;;;;5025555;28;20052;-82
2023/07/10 07:13:28;;;;;;;5.50;1.95;;;26.40;45.20;;;;;;5020100;28;20088;-81
2023/07/10 07:15:55;;;;;;;3.13;1.88;;;26.40;44.70;;;;;;5023195;28;20033;-82
2023/07/10 07:18:23;;;;;;;2.90;1.60;;;26.50;42.70;;;;;;5027743;28;20018;-82
2023/07/10 07:20:49;;;;;;;4.05;1.73;;;26.60;41.80;;;;;;5028959;28;20025;-82
2023/07/10 07:23:15;;;;;;;6.90;2.03;;;26.60;41.10;;;;;;5028106;28;20391;-79
2023/07/10 07:25:44;;;;;;;3.20;1.60;;;26.80;43.00;;;;;;5027418;28;20025;-78
2023/07/10 07:28:10;;;;;;;1.80;1.70;;;26.90;42.10;;;;;;5027200;28;20391;-80
2023/07/10 07:30:36;;;;;;;4.50;1.85;;;27.10;42.60;;;;;;5028558;28;20029;-80
2023/07/10 07:33:02;;;;;;;1.40;1.27;;;27.30;41.10;;;;;;5029090;28;20248;-81
2023/07/10 07:35:28;;;;;;;2.08;1.40;;;27.50;40.00;;;;;;5028295;28;20022;-81
2023/07/10 07:37:54;;;;;;;2.58;1.95;;;27.70;40.30;;;;;;5030064;28;20022;-80
2023/07/10 07:40:20;;;;;;;3.90;1.88;;;27.90;40.30;;;;;;5029212;28;20022;-79
2023/07/10 07:42:46;;;;;;;2.05;1.33;;;27.80;39.50;;;;;;5028895;28;20033;-80
2023/07/10 07:45:13;;;;;;;2.92;1.77;;;27.90;40.00;;;;;;5029081;28;20105;-80
2023/07/10 07:47:40;;;;;;;15.15;2.80;;;28.10;40.00;;;;;;5029122;28;20017;-79
2023/07/10 07:50:07;;;;;;;2.05;1.90;;;28.00;39.60;;;;;;5029123;28;20428;-80
2023/07/10 07:52:33;;;;;;;3.10;1.77;;;28.00;39.90;;;;;;5029856;28;20029;-81
2023/07/10 07:54:58;;;;;;;3.33;1.92;;;27.80;39.00;;;;;;5029999;28;20026;-80
2023/07/10 07:57:24;;;;;;;6.72;2.05;;;27.80;39.30;;;;;;5028844;28;20021;-80
2023/07/10 07:59:51;;;;;;;5.13;2.13;;;27.80;39.40;;;;;;5030228;28;20021;-80
2023/07/10 08:02:17;;;;;;;3.58;2.10;;;27.80;40.10;;;;;;5030048;28;20516;-80
2023/07/10 08:04:42;;;;;;;7.38;2.83;;;27.80;39.80;;;;;;5028678;28;20037;-81
2023/07/10 08:07:08;;;;;;;2.63;2.00;;;27.80;40.10;;;;;;5028835;28;20506;-80
2023/07/10 08:09:34;;;;;;;2.53;2.10;;;27.80;39.30;;;;;;5020472;28;20026;-81
2023/07/10 08:12:00;;;;;;;3.47;2.05;;;28.10;39.70;;;;;;5020359;28;20111;-80
2023/07/10 08:14:28;;;;;;;4.28;2.75;;;28.30;38.50;;;;;;5019367;28;20095;-80
2023/07/10 08:16:54;;;;;;;2.20;1.90;;;28.20;38.40;;;;;;5018966;28;20101;-80
2023/07/10 08:19:19;;;;;;;1.85;1.75;;;28.50;38.40;;;;;;5019427;28;20105;-82
2023/07/10 08:21:47;;;;;;;2.35;2.00;;;28.60;38.30;;;;;;5008995;28;20063;-81
2023/07/10 08:24:13;;;;;;;2.63;2.20;;;28.30;38.10;;;;;;5010572;28;20034;-80
2023/07/10 08:26:38;;;;;;;2.22;2.10;;;28.00;38.50;;;;;;5010668;28;20030;-81
2023/07/10 08:29:24;;;;;;;2.70;2.00;;;28.10;38.90;;;;;;5009454;28;20083;-81
2023/07/10 08:31:51;;;;;;;1.70;1.60;;;28.20;38.60;;;;;;5010532;28;20431;-82
2023/07/10 08:34:16;;;;;;;1.80;1.70;;;28.10;38.10;;;;;;5009608;28;20044;-81
2023/07/10 08:36:42;;;;;;;3.50;1.83;;;28.00;38.50;;;;;;5010852;28;20530;-80
2023/07/10 08:39:12;;;;;;;1.98;1.88;;;28.10;38.40;;;;;;5021445;28;20387;-81
2023/07/10 08:41:39;;;;;;;2.45;2.25;;;28.00;38.50;;;;;;5021025;28;20049;-79
2023/07/10 08:44:04;;;;;;;2.95;2.35;;;27.90;38.30;;;;;;5010332;28;20485;-79
2023/07/10 08:46:30;;;;;;;3.22;2.15;;;27.90;37.90;;;;;;5015296;28;20045;-80
2023/07/10 08:49:04;;;;;;;2.53;2.10;;;28.00;38.00;;;;;;5019726;28;20026;-80
2023/07/10 08:51:53;;;;;;;2.45;2.25;;;28.30;38.20;;;;;;5017832;28;20048;-79
2023/07/10 08:54:19;;;;;;;6.43;2.05;;;28.60;35.90;;;;;;5008737;28;20142;-79
2023/07/10 08:57:04;;;;;;;7.20;3.17;;;28.90;35.60;;;;;;5008269;28;20047;-81
2023/07/10 08:59:50;;;;;;;2.38;2.17;;;28.90;36.20;;;;;;5007556;28;20040;-79
2023/07/10 09:02:48;;;;;;;2.10;1.95;;;28.80;35.40;;;;;;5022008;28;20057;-80
2023/07/10 09:05:29;;;;;;;2.85;2.55;;;29.00;37.80;;;;;;5028886;28;20034;-79
2023/07/10 09:08:01;;;;;;;2.70;2.20;;;29.00;37.00;;;;;;5031213;28;20021;-79
2023/07/10 09:10:50;;;;;;;2.83;2.05;;;29.00;35.80;;;;;;5016697;28;20133;-80
2023/07/10 09:13:43;;;;;;;2.60;2.40;;;28.90;35.50;;;;;;5012176;28;20072;-80
2023/07/10 09:16:20;;;;;;;3.67;2.17;;;29.00;36.00;;;;;;5013040;28;20188;-80
2023/07/10 09:18:52;;;;;;;3.72;2.00;;;29.10;36.20;;;;;;5027925;28;20029;-79
2023/07/10 09:21:22;;;;;;;;;;;29.10;37.70;;;;;;5028750;28;20065;-79
2023/07/10 09:23:49;;;;;;;2.75;2.55;;;29.20;37.00;;;;;;5029918;27;19957;-79
2023/07/10 09:26:21;;;;;;;2.60;2.40;;;29.10;37.00;;;;;;5023456;28;20078;-79
2023/07/10 09:28:57;;;;;;;;;;;29.10;36.80;;;;;;5022404;28;20053;-80
2023/07/10 09:31:54;;;;;;;3.35;2.10;;;29.20;36.70;;;;;;5022722;28;19912;-80
2023/07/10 09:34:27;;;;;;;2.17;1.98;;;29.50;36.80;;;;;;5030400;28;20439;-81
2023/07/10 09:36:56;;;;;;;3.45;2.40;;;29.70;35.80;;;;;;5024691;28;20066;-80
2023/07/10 09:39:28;;;;;;;2.55;1.85;;;29.90;35.30;;;;;;5021517;28;20030;-81
2023/07/10 09:41:59;;;;;;;2.20;1.98;;;29.90;35.70;;;;;;5023706;28;20029;-81
2023/07/10 09:44:35;;;;;;;2.47;2.00;;;29.70;36.60;;;;;;5028816;28;20033;-81
2023/07/10 09:47:09;;;;;;;2.55;2.33;;;29.10;37.90;;;;;;5032339;28;20069;-80
2023/07/10 09:49:41;;;;;;;2.80;2.25;;;28.80;37.60;;;;;;5020502;28;20052;-81
2023/07/10 09:52:31;;;;;;;2.35;1.70;;;28.90;38.10;;;;;;5016887;28;20043;-79
2023/07/10 09:55:13;;;;;;;2.75;2.38;;;29.00;39.30;;;;;;5027602;28;20066;-80
2023/07/10 09:57:56;;;;;;;2.08;1.95;;;29.00;38.50;;;;;;5028512;28;20485;-81
2023/07/10 10:00:23;;;;;;;2.28;1.85;;;29.10;37.90;;;;;;5032304;28;20025;-81
2023/07/10 10:02:54;;;;;;;4.13;2.75;;;29.10;38.00;;;;;;5030976;28;20102;-81
2023/07/10 10:05:20;;;;;;;2.58;2.03;;;29.20;37.50;;;;;;5032345;28;20032;-82
2023/07/10 10:07:51;;;;;;;3.38;1.98;;;29.30;38.20;;;;;;5031109;28;20025;-81
2023/07/10 10:10:26;;;;;;;3.07;1.87;;;29.20;38.20;;;;;;5031882;28;20057;-81
2023/07/10 10:13:39;;;;;;;3.90;2.35;;;29.40;37.60;;;;;;5031873;28;20049;-81
2023/07/10 10:16:17;;;;;;;2.40;2.20;;;29.30;37.60;;;;;;4935833;29;20041;-80
2023/07/10 10:18:51;;;;;;;3.65;2.33;;;29.40;37.40;;;;;;4946290;28;20406;-81
2023/07/10 10:21:18;;;;;;;6.15;1.92;;;29.30;38.30;;;;;;4977462;28;20030;-81
2023/07/10 10:23:46;;;;;;;4.25;2.20;;;29.10;40.00;;;;;;5016073;28;20029;-80
2023/07/10 10:26:24;;;;;;;2.95;2.00;;;28.80;39.90;;;;;;5011441;28;20070;-80
2023/07/10 10:29:11;;;;;;;2.55;2.10;;;28.70;40.30;;;;;;5010627;28;20026;-80
2023/07/10 10:31:58;;;;;;;5.45;2.38;;;28.40;39.40;;;;;;5010714;28;20026;-80
2023/07/10 10:34:38;;;;;;;2.80;2.08;;;28.30;41.20;;;;;;5010525;28;20068;-79
2023/07/10 10:37:21;;;;;;;2.33;2.20;;;28.40;41.80;;;;;;5011870;28;20443;-79
2023/07/10 10:40:28;;;;;;;2.85;2.28;;;28.50;41.40;;;;;;5010442;28;20022;-80
2023/07/10 10:42:58;;;;;;;1.90;1.80;;;28.60;41.00;;;;;;5010375;28;20029;-80
2023/07/10 10:45:37;;;;;;;1.92;1.83;;;28.80;39.60;;;;;;5010659;28;20022;-78
2023/07/10 10:48:15;;;;;;;2.30;2.10;;;28.80;40.60;;;;;;5016913;28;20059;-78
2023/07/10 10:50:44;;;;;;;2.75;2.10;;;29.00;40.70;;;;;;5019227;28;20036;-79
2023/07/10 10:53:15;;;;;;;2.90;2.10;;;29.10;38.50;;;;;;5020321;28;20127;-79
2023/07/10 10:56:28;;;;;;;3.67;2.28;;;29.20;40.00;;;;;;5019917;28;20026;-79
2023/07/10 10:58:59;;;;;;;4.63;2.20;;;29.30;38.90;;;;;;5030516;28;20109;-80
2023/07/10 11:01:49;;;;;;;3.17;2.10;;;29.60;38.50;;;;;;5019428;28;20090;-80
2023/07/10 11:04:20;;;;;;;3.50;2.55;;;29.70;37.00;;;;;;5020366;28;20036;-80
2023/07/10 11:06:58;;;;;;;3.35;2.28;;;29.80;37.10;;;;;;5020974;28;20118;-79
2023/07/10 11:09:27;;;;;;;2.55;2.35;;;29.80;36.80;;;;;;5020600;28;20101;-79
2023/07/10 11:11:54;;;;;;;2.15;2.05;;;30.10;37.60;;;;;;5012411;28;20053;-80
2023/07/10 11:14:20;;;;;;;2.67;2.47;;;30.10;36.70;;;;;;5011589;28;20053;-79
2023/07/10 11:16:46;;;;;;;3.38;2.05;;;29.90;36.50;;;;;;5010007;28;20036;-79
2023/07/10 11:19:20;;;;;;;2.67;2.47;;;30.00;38.30;;;;;;5009945;28;20018;-79
2023/07/10 11:21:46;;;;;;;2.60;2.40;;;30.20;38.20;;;;;;5013040;28;20030;-81
2023/07/10 11:24:25;;;;;;;3.30;2.40;;;30.50;38.50;;;;;;5029584;28;20045;-80
2023/07/10 11:26:52;;;;;;;3.97;3.20;;;30.70;37.10;;;;;;5030587;28;20022;-80
2023/07/10 11:29:27;;;;;;;5.05;2.67;;;30.60;36.40;;;;;;5027724;28;20028;-80
2023/07/10 11:31:56;;;;;;;3.53;2.38;;;30.70;37.40;;;;;;5028258;28;20025;-80
2023/07/10 11:34:24;;;;;;;4.85;2.97;;;30.80;36.10;;;;;;5027289;28;20028;-80
2023/07/10 11:36:50;;;;;;;4.07;2.75;;;30.90;35.00;;;;;;5030533;28;20509;-80
2023/07/10 11:39:19;;;;;;;3.97;3.45;;;30.80;35.00;;;;;;5030824;28;20022;-80
2023/07/10 11:41:45;;;;;;;4.13;2.70;;;31.00;37.40;;;;;;5030885;28;20070;-80
2023/07/10 11:44:40;;;;;;;4.03;2.90;;;30.90;34.70;;;;;;5031071;28;20026;-80
2023/07/10 11:47:07;;;;;;;3.83;3.05;;;31.10;33.70;;;;;;5032173;28;20029;-80
2023/07/10 11:49:51;;;;;;;3.83;3.50;;;30.90;31.10;;;;;;5029967;28;20073;-80
2023/07/10 11:52:16;;;;;;;4.25;3.10;;;30.50;29.50;;;;;;5024322;28;20490;-80
2023/07/10 11:54:48;;;;;;;3.83;2.97;;;30.20;29.60;;;;;;5013861;28;20113;-80
2023/07/10 11:57:27;;;;;;;4.68;3.70;;;30.40;30.80;;;;;;5029041;28;20044;-78
2023/07/10 11:59:54;;;;;;;3.67;3.10;;;30.20;31.60;;;;;;5028640;28;20024;-79
2023/07/10 12:02:43;;;;;;;3.33;2.90;;;30.40;32.90;;;;;;5030189;28;20473;-78
2023/07/10 12:05:17;;;;;;;3.00;2.67;;;30.40;33.10;;;;;;5029377;28;20117;-79
2023/07/10 12:07:58;;;;;;;5.78;3.35;;;30.50;32.50;;;;;;5030160;28;20026;-78
2023/07/10 12:10:26;;;;;;;5.38;3.28;;;30.70;33.70;;;;;;5028585;28;20052;-78
2023/07/10 12:12:52;;;;;;;4.63;3.10;;;30.70;33.00;;;;;;5028672;28;20414;-78
2023/07/10 12:15:18;;;;;;;4.72;2.95;;;30.70;34.20;;;;;;5028594;28;20034;-79
2023/07/10 12:17:44;;;;;;;5.20;3.63;;;30.50;35.10;;;;;;5028784;28;20063;-80
2023/07/10 12:20:19;;;;;;;7.13;3.92;;;30.40;34.80;;;;;;5029238;28;20030;-80
2023/07/10 12:22:44;;;;;;;8.05;4.25;;;30.10;35.80;;;;;;5029985;28;20018;-80
2023/07/10 12:25:13;;;;;;;5.75;3.53;;;30.10;37.80;;;;;;5028327;28;20030;-80
2023/07/10 12:27:40;;;;;;;5.45;3.75;;;29.90;37.90;;;;;;5029860;28;20034;-80
2023/07/10 12:30:22;;;;;;;4.43;3.53;;;29.70;38.70;;;;;;5023419;28;20116;-80
2023/07/10 12:32:54;;;;;;;4.82;3.50;;;29.60;39.50;;;;;;5023569;28;20032;-79
2023/07/10 12:35:26;;;;;;;4.10;3.65;;;29.50;40.00;;;;;;5019322;28;20040;-80
2023/07/10 12:37:53;;;;;;;4.60;3.72;;;29.30;39.80;;;;;;5016760;28;20094;-80
2023/07/10 12:40:18;;;;;;;4.70;3.75;;;29.20;40.20;;;;;;5028848;28;20024;-80
2023/07/10 12:42:46;;;;;;;5.72;3.58;;;29.20;40.70;;;;;;5031123;28;20093;-79
2023/07/10 12:45:35;;;;;;;5.38;4.38;;;29.30;41.10;;;;;;5032463;28;20030;-80
2023/07/10 12:48:09;;;;;;;6.68;4.47;;;29.40;41.60;;;;;;5030702;28;20013;-79
2023/07/10 12:50:47;;;;;;;7.28;4.35;;;29.40;42.40;;;;;;5031750;28;20068;-79
2023/07/10 12:53:20;;;;;;;6.15;4.18;;;29.30;41.60;;;;;;5032764;28;20090;-79
2023/07/10 12:55:50;;;;;;;8.80;5.50;;;29.30;42.00;;;;;;5031524;28;20026;-79
2023/07/10 12:58:16;;;;;;;8.18;4.78;;;29.30;43.00;;;;;;5031224;28;20025;-79
2023/07/10 13:00:54;;;;;;;8.88;4.72;;;29.40;43.60;;;;;;5030845;28;20390;-80